< < Back
Terminal Aerodrome Forecast


Current Version              Previous Versions:   1  2  3  4  5  6  7  8  9  

Terminal Aerodrome Forecast

490
FTUS42 KFFC 261729
TAFMCN
TAF
KMCN 261729Z 2618/2718 20005KT P6SM SCT050
     FM270200 00000KT P6SM SCT045
     FM271500 14004KT P6SM BKN050=

Latest METAR

962
SAUS80 KWBC 261700 RRD
MTRMCN
METAR KMCN 261753Z 26007KT 10SM FEW048 SCT070 29/18 A3015 RMK AO2 SLP205
T02940183 10317 20200 58014


USA.gov is the U.S. government's official web portal to all federal, state and local government web resources and services.